createdAt,value
2018-04-15T00:00:45.120Z,85.45
2018-04-15T00:01:45.101Z,85.45
2018-04-15T00:02:45.075Z,85.25
2018-04-15T00:03:45.058Z,85.73
2018-04-15T00:04:45.032Z,85.25
2018-04-15T00:05:45.009Z,85.45
2018-04-15T00:06:44.985Z,86.02
2018-04-15T00:07:44.962Z,86.21
2018-04-15T00:08:44.952Z,85.83
2018-04-15T00:09:44.919Z,86.02
2018-04-15T00:10:44.896Z,85.83
2018-04-15T00:11:44.871Z,86.02
2018-04-15T00:12:44.848Z,85.83
2018-04-15T00:13:44.579Z,85.73
2018-04-15T00:14:44.803Z,86.02
2018-04-15T00:15:44.782Z,85.64
2018-04-15T00:16:44.510Z,86.02
2018-04-15T00:17:44.743Z,86.02
2018-04-15T00:18:44.719Z,85.83
2018-04-15T00:19:44.444Z,85.93
2018-04-15T00:20:44.680Z,85.93
2018-04-15T00:21:44.653Z,85.83
2018-04-15T00:22:44.636Z,85.93
2018-04-15T00:23:44.603Z,85.83
2018-04-15T00:24:44.585Z,85.73
2018-04-15T00:25:44.309Z,85.83
2018-04-15T00:26:44.537Z,85.73
2018-04-15T00:27:44.264Z,85.54
2018-04-15T00:28:44.493Z,86.11
2018-04-15T00:29:44.469Z,86.11
2018-04-15T00:30:44.447Z,86.49
2018-04-15T00:31:44.429Z,86.49
2018-04-15T00:32:44.401Z,86.3
2018-04-15T00:33:44.380Z,86.4
2018-04-15T00:34:44.359Z,86.59
2018-04-15T00:35:44.336Z,86.59
2018-04-15T00:36:44.311Z,86.49
2018-04-15T00:37:44.046Z,86.49
2018-04-15T00:38:44.266Z,87.35
2018-04-15T00:39:44.245Z,87.16
2018-04-15T00:40:44.224Z,87.16
2018-04-15T00:41:44.200Z,87.07
2018-04-15T00:42:44.177Z,87.26
2018-04-15T00:43:44.156Z,86.98
2018-04-15T00:44:44.135Z,87.16
2018-04-15T00:45:44.111Z,87.4
2018-04-15T00:46:44.084Z,87.78
2018-04-15T00:47:44.065Z,87.59
2018-04-15T00:48:44.040Z,87.87
2018-04-15T00:49:44.018Z,87.68
2018-04-15T00:50:43.996Z,87.97
2018-04-15T00:51:43.726Z,87.87
2018-04-15T00:52:43.949Z,88.35
2018-04-15T00:53:43.928Z,88.35
2018-04-15T00:54:44.006Z,88.16
2018-04-15T00:55:43.925Z,88.45
2018-04-15T00:56:43.865Z,88.83
2018-04-15T00:57:43.843Z,89.02
2018-04-15T00:58:43.817Z,88.64
2018-04-15T00:59:43.548Z,89.4
2018-04-15T01:00:43.775Z,89.31
2018-04-15T01:01:43.749Z,89.21
2018-04-15T01:02:43.727Z,89.59
2018-04-15T01:03:43.705Z,89.78
2018-04-15T01:04:43.688Z,89.31
2018-04-15T01:05:43.414Z,90.22
2018-04-15T01:06:43.640Z,90.73
2018-04-15T01:07:43.615Z,90.36
2018-04-15T01:08:43.593Z,90.41
2018-04-15T01:09:43.573Z,90.26
2018-04-15T01:10:43.549Z,91.02
2018-04-15T01:11:43.530Z,90.73
2018-04-15T01:12:43.513Z,90.88
2018-04-15T01:13:43.482Z,91.12
2018-04-15T01:14:43.214Z,91.17
2018-04-15T01:15:43.442Z,91.6
2018-04-15T01:16:43.415Z,91.41
2018-04-15T01:17:43.392Z,91.78
2018-04-15T01:18:43.365Z,91.6
2018-04-15T01:19:43.346Z,92.07
2018-04-15T01:20:43.328Z,91.83
2018-04-15T01:21:43.302Z,91.98
2018-04-15T01:22:43.029Z,91.98
2018-04-15T01:23:43.261Z,92.26
2018-04-15T01:24:43.231Z,92.36
2018-04-15T01:25:43.208Z,92.26
2018-04-15T01:26:43.186Z,92.46
2018-04-15T01:27:43.165Z,92.74
2018-04-15T01:28:43.141Z,92.55
2018-04-15T01:29:43.120Z,92.46
2018-04-15T01:30:43.098Z,92.46
2018-04-15T01:31:43.077Z,93.02
2018-04-15T01:32:43.050Z,93.02
2018-04-15T01:33:43.029Z,92.93
2018-04-15T01:34:43.009Z,93.22
2018-04-15T01:35:42.985Z,93.22
2018-04-15T01:36:42.964Z,93.41
2018-04-15T01:37:42.941Z,93.41
2018-04-15T01:38:42.917Z,93.02
2018-04-15T01:39:42.894Z,93.22
2018-04-15T01:40:42.626Z,93.7
2018-04-15T01:41:42.849Z,93.41
2018-04-15T01:42:42.583Z,93.41
2018-04-15T01:43:42.801Z,93.6
2018-04-15T01:44:42.782Z,94.07
2018-04-15T01:45:42.514Z,94.56
2018-04-15T01:46:42.737Z,94.17
2018-04-15T01:47:42.713Z,94.46
2018-04-15T01:48:42.695Z,94.07
2018-04-15T01:49:42.669Z,94.07
2018-04-15T01:50:42.645Z,94.07
2018-04-15T01:51:42.624Z,94.46
2018-04-15T01:52:42.354Z,94.74
2018-04-15T01:53:42.577Z,95.03
2018-04-15T01:54:42.556Z,94.84
2018-04-15T01:55:42.532Z,94.93
2018-04-15T01:56:42.514Z,95.03
2018-04-15T01:57:42.487Z,95.03
2018-04-15T01:58:42.475Z,95.12
2018-04-15T01:59:42.443Z,94.93
2018-04-15T02:00:42.420Z,95.51
2018-04-15T02:01:42.397Z,95.61
2018-04-15T02:02:42.377Z,95.22
2018-04-15T02:03:42.355Z,95.41
2018-04-15T02:04:42.330Z,95.79
2018-04-15T02:05:42.308Z,95.41
2018-04-15T02:06:42.295Z,96.17
2018-04-15T02:07:42.264Z,95.51
2018-04-15T02:08:41.993Z,96.27
2018-04-15T02:09:42.222Z,96.37
2018-04-15T02:10:42.197Z,96.27
2018-04-15T02:11:42.171Z,96.46
2018-04-15T02:12:42.149Z,96.46
2018-04-15T02:13:42.134Z,96.56
2018-04-15T02:14:42.108Z,96.56
2018-04-15T02:15:42.122Z,96.27
2018-04-15T02:16:42.058Z,96.94
2018-04-15T02:17:42.038Z,97.22
2018-04-15T02:18:42.018Z,96.94
2018-04-15T02:19:41.992Z,97.51
2018-04-15T02:20:41.973Z,97.51
2018-04-15T02:21:41.953Z,97.51
2018-04-15T02:22:41.924Z,97.51
2018-04-15T02:23:41.903Z,97.22
2018-04-15T02:24:41.884Z,97.71
2018-04-15T02:25:41.862Z,97.51
2018-04-15T02:26:41.841Z,97.42
2018-04-15T02:27:41.565Z,97.89
2018-04-15T02:28:41.545Z,97.89
2018-04-15T02:29:41.533Z,97.61
2018-04-15T02:30:41.754Z,97.61
2018-04-15T02:31:41.480Z,97.99
2018-04-15T02:32:41.704Z,97.8
2018-04-15T02:33:41.682Z,98.08
2018-04-15T02:34:41.658Z,98.18
2018-04-15T02:35:41.639Z,98.08
2018-04-15T02:36:41.616Z,97.8
2018-04-15T02:37:41.592Z,97.89
2018-04-15T02:38:41.573Z,98.47
2018-04-15T02:39:41.559Z,98.37
2018-04-15T02:40:41.524Z,98.47
2018-04-15T02:41:41.505Z,98.66
2018-04-15T02:42:41.487Z,98.85
2018-04-15T02:43:41.214Z,98.66
2018-04-15T02:44:41.440Z,98.56
2018-04-15T02:45:41.173Z,98.47
2018-04-15T02:46:41.399Z,99.32
2018-04-15T02:47:41.376Z,99.23
2018-04-15T02:48:41.349Z,99.04
2018-04-15T02:49:41.326Z,99.23
2018-04-15T02:50:41.316Z,98.94
2018-04-15T02:51:41.284Z,98.94
2018-04-15T02:52:41.262Z,99.42
2018-04-15T02:53:41.237Z,99.23
2018-04-15T02:54:41.217Z,99.04
2018-04-15T02:55:41.191Z,98.94
2018-04-15T02:56:41.196Z,98.66
2018-04-15T02:57:41.150Z,99.42
2018-04-15T02:58:41.129Z,99.8
2018-04-15T02:59:41.112Z,99.71
2018-04-15T03:00:40.835Z,99.8
2018-04-15T03:01:41.057Z,99.52
2018-04-15T03:02:41.039Z,99.61
2018-04-15T03:03:41.016Z,99.99
2018-04-15T03:04:40.995Z,99.99
2018-04-15T03:05:41.008Z,99.99
2018-04-15T03:06:40.950Z,99.99
2018-04-15T03:07:40.932Z,99.99
2018-04-15T03:08:40.903Z,99.99
2018-04-15T03:09:40.882Z,99.99
2018-04-15T03:10:40.862Z,99.99
2018-04-15T03:11:40.840Z,99.99
2018-04-15T03:12:40.818Z,99.99
2018-04-15T03:13:40.544Z,99.99
2018-04-15T03:14:40.772Z,99.99
2018-04-15T03:15:40.748Z,99.99
2018-04-15T03:16:40.726Z,99.99
2018-04-15T03:17:40.704Z,99.99
2018-04-15T03:18:40.678Z,99.99
2018-04-15T03:19:40.658Z,99.99
2018-04-15T03:20:40.636Z,99.99
2018-04-15T03:21:40.617Z,99.99
2018-04-15T03:22:40.599Z,99.99
2018-04-15T03:23:40.568Z,99.99
2018-04-15T03:24:40.548Z,99.99
2018-04-15T03:25:40.276Z,99.99
2018-04-15T03:26:40.503Z,99.99
2018-04-15T03:27:40.481Z,99.99
2018-04-15T03:28:40.456Z,99.99
2018-04-15T03:29:40.435Z,99.99
2018-04-15T03:30:40.414Z,99.99
2018-04-15T03:31:40.395Z,99.99
2018-04-15T03:32:40.381Z,99.99
2018-04-15T03:33:40.343Z,99.99
2018-04-15T03:34:40.378Z,99.99
2018-04-15T03:35:40.304Z,99.99
2018-04-15T03:36:40.281Z,99.99
2018-04-15T03:37:40.264Z,99.99
2018-04-15T03:38:40.236Z,99.99
2018-04-15T03:39:40.213Z,99.99
2018-04-15T03:40:40.194Z,99.99
2018-04-15T03:41:40.168Z,99.99
2018-04-15T03:42:40.147Z,99.99
2018-04-15T03:43:39.874Z,99.99
2018-04-15T03:44:40.108Z,99.99
2018-04-15T03:45:39.831Z,99.99
2018-04-15T03:46:40.057Z,99.99
2018-04-15T03:47:40.036Z,99.99
2018-04-15T03:48:40.014Z,99.99
2018-04-15T03:49:40.000Z,99.99
2018-04-15T03:50:39.971Z,99.99
2018-04-15T03:51:39.946Z,99.99
2018-04-15T03:52:39.926Z,99.99
2018-04-15T03:53:39.904Z,99.99
2018-04-15T03:54:39.888Z,99.99
2018-04-15T03:55:39.857Z,99.99
2018-04-15T03:56:39.589Z,99.99
2018-04-15T03:57:39.565Z,99.99
2018-04-15T03:58:39.791Z,99.99
2018-04-15T03:59:39.769Z,99.99
2018-04-15T04:00:39.752Z,99.99
2018-04-15T04:01:39.746Z,99.99
2018-04-15T04:02:39.452Z,99.99
2018-04-15T04:03:39.430Z,99.99
2018-04-15T04:04:39.655Z,99.99
2018-04-15T04:05:39.641Z,99.99
2018-04-15T04:06:39.610Z,99.99
2018-04-15T04:07:39.589Z,99.99
2018-04-15T04:08:39.317Z,99.99
2018-04-15T04:09:39.549Z,99.99
2018-04-15T04:10:39.523Z,99.99
2018-04-15T04:11:39.501Z,99.99
2018-04-15T04:12:39.477Z,99.99
2018-04-15T04:13:39.461Z,99.99
2018-04-15T04:14:39.434Z,99.99
2018-04-15T04:15:39.163Z,99.99
2018-04-15T04:16:39.390Z,99.99
2018-04-15T04:17:39.372Z,99.99
2018-04-15T04:18:39.345Z,99.99
2018-04-15T04:19:39.323Z,99.99
2018-04-15T04:20:39.300Z,99.99
2018-04-15T04:21:39.282Z,99.99
2018-04-15T04:22:39.260Z,99.99
2018-04-15T04:23:39.234Z,99.99
2018-04-15T04:24:39.211Z,99.99
2018-04-15T04:25:39.186Z,99.99
2018-04-15T04:26:38.917Z,99.99
2018-04-15T04:27:39.151Z,99.99
2018-04-15T04:28:39.127Z,99.99
2018-04-15T04:29:39.101Z,99.99
2018-04-15T04:30:39.077Z,99.99
2018-04-15T04:31:39.057Z,99.99
2018-04-15T04:32:38.788Z,99.99
2018-04-15T04:33:39.016Z,99.99
2018-04-15T04:34:38.990Z,99.99
2018-04-15T04:35:38.967Z,99.99
2018-04-15T04:36:38.945Z,99.99
2018-04-15T04:37:38.673Z,99.99
2018-04-15T04:38:38.922Z,99.99
2018-04-15T04:39:38.880Z,99.99
2018-04-15T04:40:38.856Z,99.99
2018-04-15T04:41:38.831Z,99.99
2018-04-15T04:42:38.811Z,99.99
2018-04-15T04:43:38.538Z,99.99
2018-04-15T04:44:38.767Z,99.99
2018-04-15T04:45:38.495Z,99.99
2018-04-15T04:46:38.720Z,99.99
2018-04-15T04:47:38.704Z,99.99
2018-04-15T04:48:38.675Z,99.99
2018-04-15T04:49:38.655Z,99.99
2018-04-15T04:50:38.631Z,99.99
2018-04-15T04:51:38.609Z,99.99
2018-04-15T04:52:38.583Z,99.99
2018-04-15T04:53:38.608Z,99.99
2018-04-15T04:54:38.292Z,99.99
2018-04-15T04:55:38.519Z,99.99
2018-04-15T04:56:38.496Z,99.99
2018-04-15T04:57:38.475Z,99.99
2018-04-15T04:58:38.451Z,99.99
2018-04-15T04:59:38.431Z,99.99
2018-04-15T05:00:38.405Z,99.99
2018-04-15T05:01:38.390Z,99.99
2018-04-15T05:02:38.114Z,99.99
2018-04-15T05:03:38.091Z,99.99
2018-04-15T05:04:38.316Z,99.99
2018-04-15T05:05:38.294Z,99.99
2018-04-15T05:06:38.273Z,99.99
2018-04-15T05:07:38.281Z,99.99
2018-04-15T05:08:38.224Z,99.99
2018-04-15T05:09:37.955Z,99.99
2018-04-15T05:10:38.186Z,99.99
2018-04-15T05:11:38.156Z,99.99
2018-04-15T05:12:38.133Z,99.99
2018-04-15T05:13:38.115Z,99.99
2018-04-15T05:14:37.842Z,99.99
2018-04-15T05:15:38.081Z,99.99
2018-04-15T05:16:38.052Z,99.99
2018-04-15T05:17:38.025Z,99.99
2018-04-15T05:18:38.000Z,99.99
2018-04-15T05:19:37.982Z,99.99
2018-04-15T05:20:37.710Z,99.99
2018-04-15T05:21:37.684Z,99.99
2018-04-15T05:22:37.665Z,99.99
2018-04-15T05:23:37.889Z,99.99
2018-04-15T05:24:37.866Z,99.99
2018-04-15T05:25:37.595Z,99.99
2018-04-15T05:26:37.573Z,99.99
2018-04-15T05:27:37.801Z,99.99
2018-04-15T05:28:37.778Z,99.99
2018-04-15T05:29:37.757Z,99.99
2018-04-15T05:30:37.731Z,99.99
2018-04-15T05:31:37.710Z,99.99
2018-04-15T05:32:37.689Z,99.99
2018-04-15T05:33:37.667Z,99.99
2018-04-15T05:34:37.396Z,99.99
2018-04-15T05:35:37.622Z,99.99
2018-04-15T05:36:37.349Z,99.99
2018-04-15T05:37:37.386Z,99.99
2018-04-15T05:38:37.552Z,99.99
2018-04-15T05:39:37.535Z,99.99
2018-04-15T05:40:37.516Z,99.99
2018-04-15T05:41:37.485Z,99.99
2018-04-15T05:42:37.467Z,99.99
2018-04-15T05:43:37.441Z,99.99
2018-04-15T05:44:37.429Z,99.99
2018-04-15T05:45:37.395Z,99.99
2018-04-15T05:46:37.128Z,99.99
2018-04-15T05:47:37.142Z,99.99
2018-04-15T05:48:37.331Z,99.99
2018-04-15T05:49:37.307Z,99.99
2018-04-15T05:50:37.282Z,99.99
2018-04-15T05:51:37.259Z,99.99
2018-04-15T05:52:37.237Z,99.99
2018-04-15T05:53:37.221Z,99.99
2018-04-15T05:54:37.190Z,99.99
2018-04-15T05:55:37.174Z,99.99
2018-04-15T05:56:37.150Z,99.99
2018-04-15T05:57:37.128Z,99.99
2018-04-15T05:58:37.104Z,99.99
2018-04-15T05:59:37.191Z,99.99
2018-04-15T06:00:37.061Z,99.99
2018-04-15T06:01:37.039Z,99.99
2018-04-15T06:02:37.022Z,99.99
2018-04-15T06:03:36.746Z,99.99
2018-04-15T06:04:36.725Z,99.99
2018-04-15T06:05:36.697Z,99.99
2018-04-15T06:06:36.677Z,99.99
2018-04-15T06:07:36.903Z,99.99
2018-04-15T06:08:36.878Z,99.99
2018-04-15T06:09:36.865Z,99.99
2018-04-15T06:10:36.841Z,99.99
2018-04-15T06:11:36.563Z,99.99
2018-04-15T06:12:36.540Z,99.99
2018-04-15T06:13:36.520Z,99.99
2018-04-15T06:14:36.752Z,99.99
2018-04-15T06:15:36.729Z,99.99
2018-04-15T06:16:36.709Z,99.99
2018-04-15T06:17:36.682Z,99.99
2018-04-15T06:18:36.659Z,99.99
2018-04-15T06:19:36.636Z,99.99
2018-04-15T06:20:36.614Z,99.99
2018-04-15T06:21:36.588Z,99.99
2018-04-15T06:22:36.570Z,99.99
2018-04-15T06:23:36.542Z,99.99
2018-04-15T06:24:36.602Z,99.99
2018-04-15T06:25:36.499Z,99.99
2018-04-15T06:26:36.239Z,99.99
2018-04-15T06:27:36.211Z,99.99
2018-04-15T06:28:36.444Z,99.99
2018-04-15T06:29:36.418Z,99.99
2018-04-15T06:30:36.401Z,99.99
2018-04-15T06:31:36.369Z,99.99
2018-04-15T06:32:36.350Z,99.99
2018-04-15T06:33:36.076Z,99.99
2018-04-15T06:34:36.056Z,99.99
2018-04-15T06:35:36.032Z,99.99
2018-04-15T06:36:36.260Z,99.99
2018-04-15T06:37:35.990Z,99.99
2018-04-15T06:38:36.217Z,99.99
2018-04-15T06:39:36.194Z,99.99
2018-04-15T06:40:36.224Z,99.99
2018-04-15T06:41:36.152Z,99.99
2018-04-15T06:42:35.877Z,99.99
2018-04-15T06:43:36.122Z,99.99
2018-04-15T06:44:36.083Z,99.99
2018-04-15T06:45:36.062Z,99.99
2018-04-15T06:46:36.050Z,99.99
2018-04-15T06:47:36.017Z,99.99
2018-04-15T06:48:35.997Z,99.99
2018-04-15T06:49:35.976Z,99.99
2018-04-15T06:50:35.955Z,99.99
2018-04-15T06:51:35.932Z,99.99
2018-04-15T06:52:35.911Z,99.99
2018-04-15T06:53:35.638Z,99.99
2018-04-15T06:54:35.863Z,99.99
2018-04-15T06:55:35.847Z,99.99
2018-04-15T06:56:35.819Z,99.99
2018-04-15T06:57:35.554Z,99.99
2018-04-15T06:58:35.534Z,99.99
2018-04-15T06:59:35.755Z,99.99
2018-04-15T07:00:35.733Z,99.99
2018-04-15T07:01:35.818Z,99.99
2018-04-15T07:02:35.444Z,99.99
2018-04-15T07:03:35.671Z,99.99
2018-04-15T07:04:35.646Z,99.99
2018-04-15T07:05:35.803Z,99.99
2018-04-15T07:06:35.355Z,99.99
2018-04-15T07:07:35.581Z,99.99
2018-04-15T07:08:35.559Z,99.99
2018-04-15T07:09:35.627Z,99.99
2018-04-15T07:10:35.516Z,99.99
2018-04-15T07:11:35.496Z,99.99
2018-04-15T07:12:35.478Z,99.99
2018-04-15T07:13:35.462Z,99.99
2018-04-15T07:14:35.438Z,99.99
2018-04-15T07:15:35.412Z,99.99
2018-04-15T07:16:35.460Z,99.99
2018-04-15T07:17:35.373Z,99.99
2018-04-15T07:18:35.350Z,99.99
2018-04-15T07:19:35.334Z,99.99
2018-04-15T07:20:35.309Z,99.99
2018-04-15T07:21:35.288Z,99.99
2018-04-15T07:22:35.264Z,99.99
2018-04-15T07:23:35.246Z,99.99
2018-04-15T07:24:35.283Z,99.99
2018-04-15T07:25:34.961Z,99.99
2018-04-15T07:26:35.260Z,99.99
2018-04-15T07:27:35.165Z,99.99
2018-04-15T07:28:34.897Z,99.99
2018-04-15T07:29:35.124Z,99.99
2018-04-15T07:30:35.101Z,99.99
2018-04-15T07:31:35.086Z,99.99
2018-04-15T07:32:34.815Z,99.99
2018-04-15T07:33:35.046Z,99.99
2018-04-15T07:34:35.021Z,99.99
2018-04-15T07:35:35.000Z,99.99
2018-04-15T07:36:35.119Z,99.99
2018-04-15T07:37:34.966Z,99.99
2018-04-15T07:38:34.948Z,99.99
2018-04-15T07:39:34.935Z,99.99
2018-04-15T07:40:34.903Z,99.99
2018-04-15T07:41:34.883Z,99.99
2018-04-15T07:42:34.862Z,99.99
2018-04-15T07:43:34.842Z,99.99
2018-04-15T07:44:34.821Z,99.99
2018-04-15T07:45:34.807Z,99.99
2018-04-15T07:46:34.785Z,99.99
2018-04-15T07:47:34.768Z,99.99
2018-04-15T07:48:34.745Z,99.99
2018-04-15T07:49:34.824Z,99.99
2018-04-15T07:50:34.726Z,99.99
2018-04-15T07:51:34.690Z,99.99
2018-04-15T07:52:34.672Z,99.99
2018-04-15T07:53:34.647Z,99.99
2018-04-15T07:54:34.381Z,99.99
2018-04-15T07:55:34.611Z,99.99
2018-04-15T07:56:34.595Z,99.99
2018-04-15T07:57:34.577Z,99.99
2018-04-15T07:58:34.554Z,99.99
2018-04-15T07:59:34.535Z,99.99
2018-04-15T08:00:34.520Z,99.99
2018-04-15T08:01:34.499Z,99.99
2018-04-15T08:02:34.487Z,99.99
2018-04-15T08:03:34.465Z,99.99
2018-04-15T08:04:34.442Z,99.99
2018-04-15T08:05:34.179Z,99.99
2018-04-15T08:06:34.410Z,99.99
2018-04-15T08:07:34.394Z,99.99
2018-04-15T08:08:34.374Z,99.99
2018-04-15T08:09:34.357Z,99.99
2018-04-15T08:10:34.091Z,99.99
2018-04-15T08:11:34.074Z,99.99
2018-04-15T08:12:34.056Z,99.99
2018-04-15T08:13:34.041Z,99.99
2018-04-15T08:14:34.028Z,99.99
2018-04-15T08:15:34.259Z,99.99
2018-04-15T08:16:33.991Z,99.99
2018-04-15T08:17:34.221Z,99.99
2018-04-15T08:18:34.206Z,99.99
2018-04-15T08:19:34.192Z,99.99
2018-04-15T08:20:34.174Z,99.99
2018-04-15T08:21:33.914Z,99.99
2018-04-15T08:22:34.140Z,99.99
2018-04-15T08:23:34.168Z,99.99
2018-04-15T08:24:34.111Z,99.99
2018-04-15T08:25:33.843Z,99.99
2018-04-15T08:26:34.075Z,99.99
2018-04-15T08:27:34.071Z,99.99
2018-04-15T08:28:33.795Z,99.99
2018-04-15T08:29:34.036Z,99.99
2018-04-15T08:30:34.014Z,99.99
2018-04-15T08:31:34.000Z,99.99
2018-04-15T08:32:33.978Z,99.99
2018-04-15T08:33:33.964Z,99.99
2018-04-15T08:34:33.952Z,99.99
2018-04-15T08:35:33.935Z,99.99
2018-04-15T08:36:33.918Z,99.99
2018-04-15T08:37:33.670Z,99.99
2018-04-15T08:38:33.885Z,99.99
2018-04-15T08:39:33.867Z,99.99
2018-04-15T08:40:33.847Z,99.99
2018-04-15T08:41:33.836Z,99.99
2018-04-15T08:42:33.917Z,99.99
2018-04-15T08:43:33.799Z,99.99
2018-04-15T08:44:33.786Z,99.99
2018-04-15T08:45:33.769Z,99.99
2018-04-15T08:46:33.751Z,99.99
2018-04-15T08:47:33.735Z,99.99
2018-04-15T08:48:33.719Z,99.99
2018-04-15T08:49:33.700Z,99.99
2018-04-15T08:50:33.439Z,99.99
2018-04-15T08:51:33.666Z,99.99
2018-04-15T08:52:33.655Z,99.99
2018-04-15T08:53:33.633Z,99.99
2018-04-15T08:54:33.721Z,99.99
2018-04-15T08:55:33.597Z,99.99
2018-04-15T08:56:33.580Z,99.99
2018-04-15T08:57:33.592Z,99.99
2018-04-15T08:58:33.544Z,99.99
2018-04-15T08:59:33.527Z,99.99
2018-04-15T09:00:33.553Z,99.99
2018-04-15T09:01:33.496Z,99.99
2018-04-15T09:02:33.475Z,99.99
2018-04-15T09:03:33.461Z,99.99
2018-04-15T09:04:33.438Z,99.99
2018-04-15T09:05:33.174Z,99.99
2018-04-15T09:06:33.404Z,99.99
2018-04-15T09:07:33.386Z,99.99
2018-04-15T09:08:33.372Z,99.99
2018-04-15T09:09:33.351Z,99.99
2018-04-15T09:10:33.089Z,99.99
2018-04-15T09:11:33.317Z,99.99
2018-04-15T09:12:33.297Z,99.99
2018-04-15T09:13:33.311Z,99.99
2018-04-15T09:14:33.261Z,99.99
2018-04-15T09:15:33.244Z,99.99
2018-04-15T09:16:33.233Z,99.99
2018-04-15T09:17:33.216Z,99.99
2018-04-15T09:18:33.194Z,99.99
2018-04-15T09:19:33.180Z,99.99
2018-04-15T09:20:33.157Z,99.99
2018-04-15T09:21:33.138Z,99.99
2018-04-15T09:22:33.123Z,99.99
2018-04-15T09:23:32.861Z,99.99
2018-04-15T09:24:33.086Z,99.99
2018-04-15T09:25:33.068Z,99.99
2018-04-15T09:26:33.060Z,99.99
2018-04-15T09:27:33.038Z,99.99
2018-04-15T09:28:33.019Z,99.99
2018-04-15T09:29:33.086Z,99.99
2018-04-15T09:30:32.989Z,99.99
2018-04-15T09:31:32.722Z,99.99
2018-04-15T09:32:32.955Z,99.99
2018-04-15T09:33:32.938Z,99.99
2018-04-15T09:34:32.667Z,99.99
2018-04-15T09:35:32.903Z,99.99
2018-04-15T09:36:32.885Z,99.99
2018-04-15T09:37:32.863Z,99.99
2018-04-15T09:38:32.847Z,99.99
2018-04-15T09:39:32.829Z,99.99
2018-04-15T09:40:32.567Z,99.99
2018-04-15T09:41:32.550Z,99.99
2018-04-15T09:42:32.779Z,99.99
2018-04-15T09:43:32.764Z,99.99
2018-04-15T09:44:32.747Z,99.99
2018-04-15T09:45:32.737Z,99.99
2018-04-15T09:46:32.706Z,99.99
2018-04-15T09:47:32.446Z,99.99
2018-04-15T09:48:32.672Z,99.99
2018-04-15T09:49:32.406Z,99.99
2018-04-15T09:50:32.641Z,99.99
2018-04-15T09:51:32.621Z,99.99
2018-04-15T09:52:32.678Z,99.99
2018-04-15T09:53:32.605Z,99.99
2018-04-15T09:54:32.321Z,99.99
2018-04-15T09:55:32.549Z,99.99
2018-04-15T09:56:32.286Z,99.99
2018-04-15T09:57:32.528Z,99.99
2018-04-15T09:58:32.507Z,99.99
2018-04-15T09:59:32.483Z,99.99
2018-04-15T10:00:32.478Z,99.99
2018-04-15T10:01:32.453Z,99.99
2018-04-15T10:02:32.438Z,99.99
2018-04-15T10:03:32.431Z,99.99
2018-04-15T10:04:32.429Z,99.99
2018-04-15T10:05:32.386Z,99.99
2018-04-15T10:06:32.118Z,99.99
2018-04-15T10:07:33.105Z,99.99
2018-04-15T10:08:32.330Z,99.99
2018-04-15T10:09:32.314Z,99.99
2018-04-15T10:10:32.313Z,99.99
2018-04-15T10:11:32.286Z,99.99
2018-04-15T10:12:32.264Z,99.99
2018-04-15T10:13:32.249Z,99.99
2018-04-15T10:14:31.981Z,99.99
2018-04-15T10:15:31.962Z,99.99
2018-04-15T10:16:32.202Z,99.99
2018-04-15T10:17:32.176Z,99.99
2018-04-15T10:18:31.911Z,99.99
2018-04-15T10:19:32.141Z,99.99
2018-04-15T10:20:32.130Z,99.99
2018-04-15T10:21:32.130Z,99.99
2018-04-15T10:22:32.112Z,99.99
2018-04-15T10:23:31.829Z,99.99
2018-04-15T10:24:31.812Z,99.99
2018-04-15T10:25:32.046Z,99.99
2018-04-15T10:26:31.780Z,99.99
2018-04-15T10:27:31.767Z,99.99
2018-04-15T10:28:31.752Z,99.99
2018-04-15T10:29:31.739Z,99.99
2018-04-15T10:30:31.965Z,99.99
2018-04-15T10:31:31.949Z,99.99
2018-04-15T10:32:31.941Z,99.99
2018-04-15T10:33:31.671Z,99.99
2018-04-15T10:34:31.909Z,99.99
2018-04-15T10:35:31.886Z,99.99
2018-04-15T10:36:31.878Z,99.99
2018-04-15T10:37:31.611Z,99.99
2018-04-15T10:38:31.595Z,99.99
2018-04-15T10:39:32.139Z,99.99
2018-04-15T10:40:31.895Z,99.99
2018-04-15T10:41:31.806Z,99.99
2018-04-15T10:42:31.787Z,99.99
2018-04-15T10:43:31.763Z,99.99
2018-04-15T10:44:31.761Z,97.38
2018-04-15T10:45:31.527Z,95.84
2018-04-15T10:46:31.476Z,97.66
2018-04-15T10:47:31.716Z,99.1
2018-04-15T10:48:31.698Z,99.99
2018-04-15T10:49:31.679Z,99.99
2018-04-15T10:50:31.668Z,99.99
2018-04-15T10:51:31.649Z,99.99
2018-04-15T10:52:31.643Z,99.99
2018-04-15T10:53:31.370Z,99.99
2018-04-15T10:54:31.602Z,99.99
2018-04-15T10:55:31.338Z,99.99
2018-04-15T10:56:31.327Z,99.99
2018-04-15T10:57:31.557Z,99.99
2018-04-15T10:58:31.534Z,99.99
2018-04-15T10:59:31.520Z,99.99
2018-04-15T11:00:31.510Z,99.99
2018-04-15T11:01:31.502Z,99.44
2018-04-15T11:02:31.474Z,98.63
2018-04-15T11:03:31.465Z,97.86
2018-04-15T11:04:31.443Z,97.19
2018-04-15T11:05:31.185Z,96.99
2018-04-15T11:06:31.415Z,96.75
2018-04-15T11:07:31.578Z,96.27
2018-04-15T11:08:31.387Z,95.75
2018-04-15T11:09:31.369Z,95.84
2018-04-15T11:10:31.356Z,93.53
2018-04-15T11:11:31.098Z,92.67
2018-04-15T11:12:31.076Z,91.03
2018-04-15T11:13:31.060Z,90.51
2018-04-15T11:14:31.046Z,91.37
2018-04-15T11:15:31.292Z,91.66
2018-04-15T11:16:31.014Z,91.56
2018-04-15T11:17:31.009Z,91.13
2018-04-15T11:18:31.237Z,91.42
2018-04-15T11:19:31.562Z,91.13
2018-04-15T11:20:30.972Z,90.41
2018-04-15T11:21:31.191Z,90.89
2018-04-15T11:22:31.182Z,89.83
2018-04-15T11:23:30.911Z,88.01
2018-04-15T11:24:30.901Z,87.15
2018-04-15T11:25:31.128Z,86.38
2018-04-15T11:26:31.117Z,86.28
2018-04-15T11:27:31.113Z,86.18
2018-04-15T11:28:31.086Z,86.28
2018-04-15T11:29:31.074Z,86.09
2018-04-15T11:30:31.054Z,85.51
2018-04-15T11:31:31.041Z,84.84
2018-04-15T11:32:30.786Z,84.55
2018-04-15T11:33:31.012Z,84.07
2018-04-15T11:34:30.998Z,83.73
2018-04-15T11:35:30.979Z,82.38
2018-04-15T11:36:30.966Z,81.13
2018-04-15T11:37:30.948Z,80.27
2018-04-15T11:38:31.012Z,79.11
2018-04-15T11:39:30.919Z,78.44
2018-04-15T11:40:30.905Z,77.96
2018-04-15T11:41:30.895Z,77.38
2018-04-15T11:42:30.877Z,77.09
2018-04-15T11:43:30.870Z,76.61
2018-04-15T11:44:30.599Z,75.46
2018-04-15T11:45:30.831Z,75.21
2018-04-15T11:46:30.865Z,74.3
2018-04-15T11:47:30.553Z,73.63
2018-04-15T11:48:30.805Z,72.9
2018-04-15T11:49:30.773Z,72.03
2018-04-15T11:50:30.760Z,70.68
2018-04-15T11:51:30.795Z,69.44
2018-04-15T11:52:30.730Z,68.48
2018-04-15T11:53:30.719Z,67.03
2018-04-15T11:54:30.708Z,66.55
2018-04-15T11:55:30.693Z,65.69
2018-04-15T11:56:30.430Z,65.4
2018-04-15T11:57:30.665Z,65.01
2018-04-15T11:58:30.738Z,63.48
2018-04-15T11:59:30.635Z,62.99
2018-04-15T12:00:30.624Z,62.51
2018-04-15T12:01:30.605Z,62.13
2018-04-15T12:02:30.593Z,61.97
2018-04-15T12:03:30.329Z,61.29
2018-04-15T12:04:30.566Z,60.52
2018-04-15T12:05:30.551Z,59.85
2018-04-15T12:06:30.545Z,59.17
2018-04-15T12:07:30.526Z,58.02
2018-04-15T12:08:30.514Z,57.35
2018-04-15T12:09:30.494Z,56.99
2018-04-15T12:10:30.483Z,56.99
2018-04-15T12:11:30.469Z,56.41
2018-04-15T12:12:30.457Z,56.12
2018-04-15T12:13:30.442Z,55.07
2018-04-15T12:14:30.427Z,54.94
2018-04-15T12:15:30.412Z,54.17
2018-04-15T12:16:30.397Z,54.27
2018-04-15T12:17:30.387Z,54.27
2018-04-15T12:18:30.370Z,54.65
2018-04-15T12:19:30.360Z,54.94
2018-04-15T12:20:30.356Z,54.75
2018-04-15T12:21:30.332Z,54.94
2018-04-15T12:22:30.318Z,54.75
2018-04-15T12:23:30.057Z,54.56
2018-04-15T12:24:30.296Z,54.39
2018-04-15T12:25:30.274Z,53.91
2018-04-15T12:26:30.261Z,53.33
2018-04-15T12:27:30.258Z,52.2
2018-04-15T12:28:30.245Z,51.7
2018-04-15T12:29:30.220Z,51.79
2018-04-15T12:30:30.205Z,51.5
2018-04-15T12:31:29.946Z,51.6
2018-04-15T12:32:30.178Z,51.05
2018-04-15T12:33:30.175Z,50.85
2018-04-15T12:34:29.903Z,50.95
2018-04-15T12:35:30.146Z,50.95
2018-04-15T12:36:30.125Z,50.85
2018-04-15T12:37:29.866Z,50.95
2018-04-15T12:38:30.103Z,50.76
2018-04-15T12:39:30.326Z,50.18
2018-04-15T12:40:30.183Z,50.21
2018-04-15T12:41:30.066Z,49.91
2018-04-15T12:42:30.050Z,50.01
2018-04-15T12:43:30.041Z,49.91
2018-04-15T12:44:30.024Z,50.21
2018-04-15T12:45:30.007Z,50.01
2018-04-15T12:46:29.999Z,48.86
2018-04-15T12:47:29.983Z,48.86
2018-04-15T12:48:29.723Z,49.34
2018-04-15T12:49:29.958Z,49.05
2018-04-15T12:50:29.697Z,49.34
2018-04-15T12:51:29.686Z,49.34
2018-04-15T12:52:29.671Z,49.43
2018-04-15T12:53:29.909Z,49.34